createdAt,value
2023-01-20T00:01:25.289Z,11.52
2023-01-20T00:03:54.180Z,12.25
2023-01-20T00:06:25.223Z,11.52
2023-01-20T00:08:53.296Z,11.43
2023-01-20T00:11:21.406Z,11.07
2023-01-20T00:13:53.051Z,10.32
2023-01-20T00:18:48.321Z,11.07
2023-01-20T00:21:16.131Z,11.80
2023-01-20T00:23:46.632Z,12.65
2023-01-20T00:26:16.385Z,11.57
2023-01-20T00:28:44.325Z,12.23
2023-01-20T00:31:13.874Z,12.45
2023-01-20T00:33:42.523Z,12.52
2023-01-20T00:36:11.764Z,12.57
2023-01-20T00:38:39.775Z,12.05
2023-01-20T00:41:09.664Z,12.27
2023-01-20T00:43:37.362Z,11.68
2023-01-20T00:46:05.465Z,12.18
2023-01-20T00:48:33.656Z,11.25
2023-01-20T00:51:01.302Z,12.35
2023-01-20T00:53:29.373Z,12.60
2023-01-20T00:55:57.151Z,11.15
2023-01-20T00:58:26.447Z,11.93
2023-01-20T01:00:54.918Z,12.30
2023-01-20T01:03:22.879Z,12.60
2023-01-20T01:05:50.939Z,12.10
2023-01-20T01:08:18.588Z,13.55
2023-01-20T01:10:46.620Z,13.43
2023-01-20T01:13:14.188Z,13.13
2023-01-20T01:15:49.846Z,13.70
2023-01-20T01:18:17.656Z,13.40
2023-01-20T01:20:45.163Z,12.70
2023-01-20T01:23:12.901Z,11.82
2023-01-20T01:25:40.525Z,12.25
2023-01-20T01:28:08.069Z,11.85
2023-01-20T01:30:35.818Z,11.73
2023-01-20T01:33:05.303Z,11.98
2023-01-20T01:35:32.830Z,11.88
2023-01-20T01:38:00.534Z,13.38
2023-01-20T01:40:28.253Z,12.50
2023-01-20T01:42:55.780Z,12.68
2023-01-20T01:45:26.547Z,11.50
2023-01-20T01:48:00.646Z,12.57
2023-01-20T12:42:50.497Z,10.23
2023-01-20T12:45:28.944Z,10.13
2023-01-20T12:48:12.953Z,10.18
2023-01-20T12:50:52.868Z,11.30
2023-01-20T12:53:35.963Z,9.68
2023-01-20T12:56:18.190Z,9.32
2023-01-20T12:58:55.186Z,10.35
2023-01-20T13:01:43.581Z,9.85
2023-01-20T13:04:45.286Z,9.88
2023-01-20T13:07:38.464Z,10.18
2023-01-20T13:10:39.482Z,10.35
2023-01-20T13:13:20.182Z,9.85
2023-01-20T13:15:57.467Z,10.98
2023-01-20T13:18:33.921Z,11.43
2023-01-20T13:21:01.548Z,11.05
2023-01-20T13:23:33.467Z,10.45
2023-01-20T13:28:30.747Z,11.73
2023-01-20T13:31:01.928Z,12.43
2023-01-20T13:36:00.692Z,12.20
2023-01-20T13:38:30.010Z,11.95
2023-01-20T13:40:59.363Z,11.93
2023-01-20T13:43:52.221Z,12.07
2023-01-20T13:46:48.391Z,12.23
2023-01-20T13:49:46.346Z,11.27
2023-01-20T13:52:15.541Z,13.52
2023-01-20T13:54:47.726Z,11.63
2023-01-20T13:57:45.412Z,13.38
2023-01-20T14:00:15.216Z,11.70
2023-01-20T14:02:45.106Z,12.68
2023-01-20T14:05:32.288Z,12.57
2023-01-20T14:08:00.266Z,12.15
2023-01-20T14:10:28.102Z,11.90
2023-01-20T14:12:55.790Z,12.30
2023-01-20T14:15:32.894Z,13.57
2023-01-20T14:18:02.468Z,12.02
2023-01-20T14:20:31.268Z,11.65
2023-01-20T14:23:25.247Z,12.68
2023-01-20T14:26:11.014Z,12.18
2023-01-20T14:28:51.347Z,12.75
2023-01-20T14:31:29.574Z,12.70
2023-01-20T14:34:02.278Z,13.68
2023-01-20T14:36:32.354Z,13.48
2023-01-20T14:39:04.173Z,13.82
2023-01-20T14:41:34.673Z,14.50
2023-01-20T14:44:03.315Z,13.98
2023-01-20T14:46:32.609Z,13.60
2023-01-20T14:49:03.636Z,14.85
2023-01-20T14:55:31.783Z,12.50
2023-01-20T14:57:59.861Z,13.25
2023-01-20T15:00:29.454Z,13.00
2023-01-20T15:03:11.434Z,15.55
2023-01-20T15:05:42.596Z,15.40
2023-01-20T15:08:25.240Z,13.77
2023-01-20T15:11:20.110Z,14.85
2023-01-20T15:14:07.395Z,14.10
2023-01-20T15:16:45.808Z,15.05
2023-01-20T15:19:32.521Z,14.48
2023-01-20T15:22:25.861Z,13.35
2023-01-20T15:24:54.677Z,16.02
2023-01-20T15:27:29.297Z,14.35
2023-01-20T15:30:17.055Z,15.57
2023-01-20T15:32:45.157Z,16.00
2023-01-20T15:35:14.199Z,15.57
2023-01-20T18:18:49.524Z,21.13
2023-01-20T18:21:19.065Z,20.60
2023-01-20T18:23:48.488Z,19.00
2023-01-20T18:26:19.085Z,20.30
2023-01-20T18:28:47.552Z,19.17
2023-01-20T18:31:17.738Z,19.75
2023-01-20T18:33:48.978Z,21.42
2023-01-20T18:36:18.294Z,20.90
2023-01-20T18:38:50.163Z,21.38
2023-01-20T18:41:18.401Z,20.88
2023-01-20T18:43:46.872Z,21.50
2023-01-20T18:46:14.791Z,22.40
2023-01-20T18:48:44.262Z,21.00
2023-01-20T18:51:14.698Z,22.02
2023-01-20T18:53:45.805Z,20.60
2023-01-20T18:56:15.170Z,21.17
2023-01-20T18:58:43.897Z,22.52
2023-01-20T19:01:13.888Z,22.73
2023-01-20T19:03:41.670Z,20.95
2023-01-20T19:06:11.732Z,23.30
2023-01-20T19:08:42.185Z,24.50
2023-01-20T19:11:12.028Z,21.77
2023-01-20T19:13:40.211Z,24.58
2023-01-20T19:16:08.757Z,22.48
2023-01-20T19:18:37.265Z,26.15
2023-01-20T19:21:06.048Z,24.00
2023-01-20T19:23:34.190Z,24.02
2023-01-20T19:26:05.184Z,21.95
2023-01-20T19:28:32.834Z,23.52
2023-01-20T19:31:05.810Z,25.55
2023-01-20T19:33:33.938Z,23.58
2023-01-20T19:36:03.451Z,24.13
2023-01-20T19:38:34.386Z,23.42
2023-01-20T19:41:07.206Z,23.13
2023-01-20T19:43:35.599Z,22.95
2023-01-20T19:46:03.553Z,24.08
2023-01-20T19:48:32.011Z,23.65
2023-01-20T19:51:03.211Z,23.60
2023-01-20T19:53:31.503Z,24.83
2023-01-20T19:56:02.452Z,25.23
2023-01-20T19:58:31.939Z,25.65
2023-01-20T20:01:07.149Z,26.25
2023-01-20T20:03:35.974Z,25.33
2023-01-20T20:06:04.460Z,23.60
2023-01-20T20:08:32.479Z,24.48
2023-01-20T20:11:00.584Z,26.70
2023-01-20T20:13:28.248Z,25.10
2023-01-20T20:16:05.719Z,26.13
2023-01-20T20:18:33.824Z,25.05
2023-01-20T20:21:01.378Z,25.10
2023-01-20T20:23:30.521Z,25.23
2023-01-20T20:25:58.293Z,25.02
2023-01-20T20:28:27.546Z,25.65
2023-01-20T20:30:55.649Z,25.75
2023-01-20T20:33:24.888Z,24.95
2023-01-20T20:35:52.403Z,25.00
2023-01-20T20:38:20.664Z,24.55
2023-01-20T20:40:48.396Z,24.35
2023-01-20T20:43:15.991Z,24.55
2023-01-20T20:45:43.552Z,24.30
2023-01-20T20:48:11.311Z,25.85
2023-01-20T20:50:40.302Z,23.67
2023-01-20T20:53:08.099Z,25.17
2023-01-20T20:55:39.647Z,24.42
2023-01-20T20:58:07.299Z,24.67
2023-01-20T21:00:35.010Z,24.10
2023-01-20T21:03:02.907Z,24.00
2023-01-20T21:05:30.525Z,24.77
2023-01-20T21:08:00.141Z,23.45
2023-01-20T21:10:27.729Z,23.73
2023-01-20T21:12:57.008Z,23.52
2023-01-20T21:15:24.660Z,25.30
2023-01-20T21:17:52.780Z,25.63
2023-01-20T21:20:20.366Z,24.40
2023-01-20T21:22:48.087Z,24.95
2023-01-20T21:25:18.602Z,25.27
2023-01-20T21:27:46.121Z,23.60
2023-01-20T21:30:14.567Z,24.75
2023-01-20T21:32:42.480Z,23.98
2023-01-20T21:35:10.847Z,26.88
2023-01-20T21:37:39.205Z,23.60
2023-01-20T21:40:07.786Z,23.95
2023-01-20T21:42:37.257Z,23.10
2023-01-20T21:45:05.569Z,26.63
2023-01-20T21:47:33.610Z,23.50
2023-01-20T21:50:01.550Z,24.15
2023-01-20T21:52:29.277Z,22.67
2023-01-20T21:54:57.233Z,23.92
2023-01-20T21:57:28.454Z,24.92
2023-01-20T21:59:57.789Z,24.17
2023-01-20T22:02:26.832Z,27.30
2023-01-20T22:04:55.035Z,28.08
2023-01-20T22:07:23.259Z,22.42
2023-01-20T22:09:51.155Z,25.27
2023-01-20T22:12:18.747Z,25.48
2023-01-20T22:14:46.638Z,23.90
2023-01-20T22:17:15.781Z,24.65
2023-01-20T22:19:43.504Z,26.08
2023-01-20T22:22:13.461Z,23.67
2023-01-20T22:24:42.596Z,24.40
2023-01-20T22:27:10.154Z,22.02
2023-01-20T22:29:37.880Z,24.23
2023-01-20T22:32:05.629Z,24.08
2023-01-20T22:34:34.745Z,23.15
2023-01-20T22:37:02.463Z,24.55
2023-01-20T22:39:30.623Z,25.90
2023-01-20T22:41:58.185Z,24.27
2023-01-20T22:44:25.892Z,23.60
2023-01-20T22:46:54.062Z,26.73
2023-01-20T22:49:22.228Z,24.38
2023-01-20T22:51:53.543Z,23.73
2023-01-20T22:54:23.123Z,26.23
2023-01-20T22:56:50.665Z,26.35
2023-01-20T22:59:18.457Z,25.85
2023-01-20T23:01:46.150Z,24.95
2023-01-20T23:04:14.018Z,23.70
2023-01-20T23:06:42.160Z,24.88
2023-01-20T23:09:12.709Z,25.02
2023-01-20T23:11:40.522Z,26.70
2023-01-20T23:14:08.594Z,25.98
2023-01-20T23:16:36.867Z,27.15
2023-01-20T23:19:04.862Z,25.83
2023-01-20T23:21:34.397Z,25.58
2023-01-20T23:24:02.067Z,25.65
2023-01-20T23:26:31.672Z,26.58
2023-01-20T23:29:00.011Z,26.85
2023-01-20T23:31:27.764Z,27.38
2023-01-20T23:33:55.464Z,26.92
2023-01-20T23:36:24.813Z,26.65
2023-01-20T23:38:54.061Z,26.08
2023-01-20T23:41:21.778Z,30.00
2023-01-20T23:43:51.042Z,28.08
2023-01-20T23:46:19.086Z,27.23
2023-01-20T23:48:46.985Z,25.50
2023-01-20T23:51:15.133Z,28.42
2023-01-20T23:53:43.101Z,26.70
2023-01-20T23:56:12.538Z,27.08
2023-01-20T23:58:44.883Z,30.58
